sensor_id;sensor_type;location;lat;lon;timestamp;pressure;altitude;pressure_sealevel;temperature;humidity
8318;BME280;4196;48.926;8.964;2023-03-03T00:00:08;99306.09;;;-1.25;100.00
8318;BME280;4196;48.926;8.964;2023-03-03T00:03:00;99325.38;;;-1.28;100.00
8318;BME280;4196;48.926;8.964;2023-03-03T00:05:49;99325.66;;;-1.40;100.00
8318;BME280;4196;48.926;8.964;2023-03-03T00:08:35;99331.63;;;-1.39;100.00
8318;BME280;4196;48.926;8.964;2023-03-03T00:11:22;99330.44;;;-1.46;100.00
8318;BME280;4196;48.926;8.964;2023-03-03T00:14:21;99298.81;;;-1.35;100.00
8318;BME280;4196;48.926;8.964;2023-03-03T00:17:20;99303.94;;;-1.51;100.00
8318;BME280;4196;48.926;8.964;2023-03-03T00:20:28;99319.81;;;-1.55;100.00
8318;BME280;4196;48.926;8.964;2023-03-03T00:26:37;99322.06;;;-1.78;100.00
8318;BME280;4196;48.926;8.964;2023-03-03T00:29:36;99332.41;;;-1.75;100.00
8318;BME280;4196;48.926;8.964;2023-03-03T00:32:25;99327.63;;;-1.85;100.00
8318;BME280;4196;48.926;8.964;2023-03-03T00:35:22;99333.09;;;-1.77;100.00
8318;BME280;4196;48.926;8.964;2023-03-03T00:38:13;99328.50;;;-1.84;100.00
8318;BME280;4196;48.926;8.964;2023-03-03T00:41:07;99325.69;;;-1.90;100.00
8318;BME280;4196;48.926;8.964;2023-03-03T00:43:57;99307.06;;;-2.07;100.00
8318;BME280;4196;48.926;8.964;2023-03-03T00:46:43;99300.06;;;-2.11;100.00
8318;BME280;4196;48.926;8.964;2023-03-03T00:49:29;99319.97;;;-2.03;100.00
8318;BME280;4196;48.926;8.964;2023-03-03T00:52:17;99325.94;;;-2.02;100.00
8318;BME280;4196;48.926;8.964;2023-03-03T00:55:05;99326.69;;;-2.03;100.00
8318;BME280;4196;48.926;8.964;2023-03-03T00:57:52;99308.50;;;-2.12;100.00
8318;BME280;4196;48.926;8.964;2023-03-03T01:00:43;99324.44;;;-1.99;100.00
8318;BME280;4196;48.926;8.964;2023-03-03T01:03:33;99322.03;;;-2.12;100.00
8318;BME280;4196;48.926;8.964;2023-03-03T01:06:19;99297.56;;;-2.28;100.00
8318;BME280;4196;48.926;8.964;2023-03-03T01:09:05;99314.28;;;-2.15;100.00
8318;BME280;4196;48.926;8.964;2023-03-03T01:11:53;99314.69;;;-2.24;100.00
8318;BME280;4196;48.926;8.964;2023-03-03T01:14:40;99283.66;;;-2.51;100.00
8318;BME280;4196;48.926;8.964;2023-03-03T01:17:27;99288.59;;;-2.54;100.00
8318;BME280;4196;48.926;8.964;2023-03-03T01:20:15;99305.81;;;-2.32;100.00
8318;BME280;4196;48.926;8.964;2023-03-03T01:23:01;99301.50;;;-2.49;100.00
8318;BME280;4196;48.926;8.964;2023-03-03T01:25:48;99274.50;;;-2.65;100.00
8318;BME280;4196;48.926;8.964;2023-03-03T01:28:35;99329.56;;;-2.30;100.00
8318;BME280;4196;48.926;8.964;2023-03-03T01:31:21;99310.69;;;-2.51;100.00
8318;BME280;4196;48.926;8.964;2023-03-03T01:34:08;99321.84;;;-2.48;100.00
8318;BME280;4196;48.926;8.964;2023-03-03T01:36:54;99300.69;;;-2.64;100.00
8318;BME280;4196;48.926;8.964;2023-03-03T01:39:40;99303.88;;;-2.69;100.00
8318;BME280;4196;48.926;8.964;2023-03-03T01:42:27;99337.94;;;-2.47;100.00
8318;BME280;4196;48.926;8.964;2023-03-03T01:48:40;99310.56;;;-2.38;100.00
8318;BME280;4196;48.926;8.964;2023-03-03T01:51:37;99326.88;;;-2.49;100.00
8318;BME280;4196;48.926;8.964;2023-03-03T01:54:37;99289.13;;;-2.76;100.00
8318;BME280;4196;48.926;8.964;2023-03-03T01:57:28;99299.97;;;-2.62;100.00
8318;BME280;4196;48.926;8.964;2023-03-03T02:00:17;99278.81;;;-2.62;100.00
8318;BME280;4196;48.926;8.964;2023-03-03T02:03:04;99313.22;;;-2.51;100.00
8318;BME280;4196;48.926;8.964;2023-03-03T02:05:53;99262.34;;;-2.71;100.00
8318;BME280;4196;48.926;8.964;2023-03-03T02:09:01;99304.97;;;-2.47;100.00
8318;BME280;4196;48.926;8.964;2023-03-03T02:11:51;99288.09;;;-2.63;100.00
8318;BME280;4196;48.926;8.964;2023-03-03T02:14:39;99272.94;;;-2.78;100.00
8318;BME280;4196;48.926;8.964;2023-03-03T02:17:26;99270.00;;;-2.85;100.00
8318;BME280;4196;48.926;8.964;2023-03-03T02:26:25;99303.19;;;-2.81;100.00
8318;BME280;4196;48.926;8.964;2023-03-03T02:29:17;99279.06;;;-2.74;100.00
8318;BME280;4196;48.926;8.964;2023-03-03T02:32:05;99307.44;;;-2.49;100.00
8318;BME280;4196;48.926;8.964;2023-03-03T02:34:52;99276.13;;;-2.82;100.00
8318;BME280;4196;48.926;8.964;2023-03-03T02:37:38;99305.91;;;-2.78;100.00
8318;BME280;4196;48.926;8.964;2023-03-03T02:40:27;99283.53;;;-3.01;100.00
8318;BME280;4196;48.926;8.964;2023-03-03T02:43:18;99306.94;;;-2.74;100.00
8318;BME280;4196;48.926;8.964;2023-03-03T02:46:07;99314.28;;;-2.79;100.00
8318;BME280;4196;48.926;8.964;2023-03-03T02:48:54;99294.75;;;-2.96;100.00
8318;BME280;4196;48.926;8.964;2023-03-03T02:51:41;99319.81;;;-2.86;100.00
8318;BME280;4196;48.926;8.964;2023-03-03T02:54:29;99271.66;;;-3.17;100.00
8318;BME280;4196;48.926;8.964;2023-03-03T02:57:17;99314.66;;;-2.87;100.00
8318;BME280;4196;48.926;8.964;2023-03-03T03:00:04;99325.69;;;-2.87;100.00
8318;BME280;4196;48.926;8.964;2023-03-03T03:02:51;99288.06;;;-3.10;100.00
8318;BME280;4196;48.926;8.964;2023-03-03T03:05:38;99286.72;;;-2.73;100.00
8318;BME280;4196;48.926;8.964;2023-03-03T03:08:25;99301.81;;;-2.59;100.00
8318;BME280;4196;48.926;8.964;2023-03-03T03:11:11;99299.00;;;-2.80;100.00
8318;BME280;4196;48.926;8.964;2023-03-03T03:13:58;99285.25;;;-3.00;100.00
8318;BME280;4196;48.926;8.964;2023-03-03T03:16:44;99319.56;;;-2.90;100.00
8318;BME280;4196;48.926;8.964;2023-03-03T03:19:31;99305.34;;;-3.03;100.00
8318;BME280;4196;48.926;8.964;2023-03-03T03:22:20;99296.28;;;-3.14;100.00
8318;BME280;4196;48.926;8.964;2023-03-03T03:25:07;99316.09;;;-3.07;100.00
8318;BME280;4196;48.926;8.964;2023-03-03T03:27:54;99309.56;;;-3.19;100.00
8318;BME280;4196;48.926;8.964;2023-03-03T03:30:41;99298.31;;;-3.09;100.00
8318;BME280;4196;48.926;8.964;2023-03-03T03:33:29;99314.53;;;-3.05;100.00
8318;BME280;4196;48.926;8.964;2023-03-03T03:36:16;99288.25;;;-3.07;100.00
8318;BME280;4196;48.926;8.964;2023-03-03T03:39:03;99295.78;;;-3.09;100.00
8318;BME280;4196;48.926;8.964;2023-03-03T03:41:54;99327.75;;;-2.80;100.00
8318;BME280;4196;48.926;8.964;2023-03-03T03:44:41;99323.69;;;-2.61;100.00
8318;BME280;4196;48.926;8.964;2023-03-03T03:47:27;99303.13;;;-2.82;100.00
8318;BME280;4196;48.926;8.964;2023-03-03T03:50:16;99286.50;;;-3.08;100.00
8318;BME280;4196;48.926;8.964;2023-03-03T03:53:04;99324.78;;;-2.87;100.00
8318;BME280;4196;48.926;8.964;2023-03-03T03:55:51;99306.59;;;-2.80;100.00
8318;BME280;4196;48.926;8.964;2023-03-03T03:58:40;99307.94;;;-2.87;100.00
8318;BME280;4196;48.926;8.964;2023-03-03T04:01:28;99284.94;;;-2.59;100.00
8318;BME280;4196;48.926;8.964;2023-03-03T04:04:16;99308.56;;;-2.27;100.00
8318;BME280;4196;48.926;8.964;2023-03-03T04:07:02;99330.19;;;-2.34;100.00
8318;BME280;4196;48.926;8.964;2023-03-03T04:09:49;99325.13;;;-2.34;100.00
8318;BME280;4196;48.926;8.964;2023-03-03T04:12:36;99302.63;;;-2.28;100.00
8318;BME280;4196;48.926;8.964;2023-03-03T04:15:30;99293.59;;;-2.23;100.00
8318;BME280;4196;48.926;8.964;2023-03-03T04:18:18;99326.00;;;-2.01;100.00
8318;BME280;4196;48.926;8.964;2023-03-03T04:21:05;99271.25;;;-2.30;100.00
8318;BME280;4196;48.926;8.964;2023-03-03T04:23:52;99322.81;;;-1.80;100.00
8318;BME280;4196;48.926;8.964;2023-03-03T04:26:39;99319.75;;;-1.73;100.00
8318;BME280;4196;48.926;8.964;2023-03-03T04:29:26;99304.97;;;-1.82;100.00
8318;BME280;4196;48.926;8.964;2023-03-03T04:32:13;99287.59;;;-1.56;100.00
8318;BME280;4196;48.926;8.964;2023-03-03T04:35:00;99318.16;;;-1.37;100.00
8318;BME280;4196;48.926;8.964;2023-03-03T04:37:56;99338.75;;;-1.32;100.00
8318;BME280;4196;48.926;8.964;2023-03-03T04:40:43;99318.97;;;-1.38;100.00
8318;BME280;4196;48.926;8.964;2023-03-03T04:43:31;99336.06;;;-1.17;100.00
8318;BME280;4196;48.926;8.964;2023-03-03T04:46:18;99306.19;;;-1.22;100.00
8318;BME280;4196;48.926;8.964;2023-03-03T04:49:05;99334.41;;;-0.99;100.00
8318;BME280;4196;48.926;8.964;2023-03-03T04:51:56;99301.88;;;-1.24;100.00
8318;BME280;4196;48.926;8.964;2023-03-03T04:54:43;99311.44;;;-1.18;100.00
8318;BME280;4196;48.926;8.964;2023-03-03T04:57:30;99340.88;;;-0.88;100.00
8318;BME280;4196;48.926;8.964;2023-03-03T05:00:19;99319.00;;;-0.84;100.00
8318;BME280;4196;48.926;8.964;2023-03-03T05:03:06;99343.88;;;-0.59;100.00
8318;BME280;4196;48.926;8.964;2023-03-03T05:05:53;99350.63;;;-0.60;100.00
8318;BME280;4196;48.926;8.964;2023-03-03T05:08:39;99344.88;;;-0.56;100.00
8318;BME280;4196;48.926;8.964;2023-03-03T05:11:28;99339.22;;;-0.50;100.00
8318;BME280;4196;48.926;8.964;2023-03-03T05:14:14;99331.44;;;-0.53;100.00
8318;BME280;4196;48.926;8.964;2023-03-03T05:17:02;99330.38;;;-0.58;100.00
8318;BME280;4196;48.926;8.964;2023-03-03T05:19:49;99320.56;;;-0.68;100.00
8318;BME280;4196;48.926;8.964;2023-03-03T05:22:36;99328.41;;;-0.82;100.00
8318;BME280;4196;48.926;8.964;2023-03-03T05:25:22;99344.78;;;-0.77;100.00
8318;BME280;4196;48.926;8.964;2023-03-03T05:28:09;99337.34;;;-0.72;100.00
8318;BME280;4196;48.926;8.964;2023-03-03T05:30:55;99313.06;;;-1.03;100.00
8318;BME280;4196;48.926;8.964;2023-03-03T05:33:42;99349.41;;;-0.68;100.00
8318;BME280;4196;48.926;8.964;2023-03-03T05:36:28;99328.78;;;-0.74;100.00
8318;BME280;4196;48.926;8.964;2023-03-03T05:39:14;99373.44;;;-0.61;100.00
8318;BME280;4196;48.926;8.964;2023-03-03T05:42:01;99366.13;;;-0.55;100.00
8318;BME280;4196;48.926;8.964;2023-03-03T05:44:48;99365.88;;;-0.60;100.00
8318;BME280;4196;48.926;8.964;2023-03-03T05:47:34;99353.53;;;-0.52;100.00
8318;BME280;4196;48.926;8.964;2023-03-03T05:50:21;99375.66;;;-0.32;100.00
8318;BME280;4196;48.926;8.964;2023-03-03T05:53:07;99373.81;;;-0.16;100.00
8318;BME280;4196;48.926;8.964;2023-03-03T05:55:54;99339.34;;;-0.47;100.00
8318;BME280;4196;48.926;8.964;2023-03-03T05:58:40;99375.06;;;-0.26;100.00
8318;BME280;4196;48.926;8.964;2023-03-03T06:01:27;99383.13;;;-0.17;100.00
8318;BME280;4196;48.926;8.964;2023-03-03T06:04:14;99359.44;;;-0.34;100.00
8318;BME280;4196;48.926;8.964;2023-03-03T06:07:00;99370.19;;;-0.21;100.00
8318;BME280;4196;48.926;8.964;2023-03-03T06:09:47;99367.03;;;-0.35;100.00
8318;BME280;4196;48.926;8.964;2023-03-03T06:12:33;99332.16;;;-0.56;100.00
8318;BME280;4196;48.926;8.964;2023-03-03T06:15:21;99371.19;;;-0.18;100.00
8318;BME280;4196;48.926;8.964;2023-03-03T06:18:08;99357.84;;;-0.32;100.00
8318;BME280;4196;48.926;8.964;2023-03-03T06:20:54;99394.50;;;-0.09;100.00
8318;BME280;4196;48.926;8.964;2023-03-03T06:23:41;99388.53;;;-0.09;100.00
8318;BME280;4196;48.926;8.964;2023-03-03T06:26:27;99370.78;;;-0.27;100.00
8318;BME280;4196;48.926;8.964;2023-03-03T06:29:14;99396.72;;;-0.16;100.00
8318;BME280;4196;48.926;8.964;2023-03-03T06:32:01;99402.94;;;-0.29;100.00
8318;BME280;4196;48.926;8.964;2023-03-03T06:34:47;99371.09;;;-0.39;100.00
8318;BME280;4196;48.926;8.964;2023-03-03T06:37:34;99409.44;;;-0.16;100.00
8318;BME280;4196;48.926;8.964;2023-03-03T06:40:21;99416.41;;;0.07;100.00
8318;BME280;4196;48.926;8.964;2023-03-03T06:43:07;99389.91;;;0.02;100.00
8318;BME280;4196;48.926;8.964;2023-03-03T06:45:54;99406.31;;;0.09;100.00
8318;BME280;4196;48.926;8.964;2023-03-03T06:48:40;99355.59;;;-0.26;100.00
8318;BME280;4196;48.926;8.964;2023-03-03T06:51:32;99392.28;;;-0.01;100.00
8318;BME280;4196;48.926;8.964;2023-03-03T06:54:25;99420.66;;;0.26;100.00
8318;BME280;4196;48.926;8.964;2023-03-03T06:57:30;99430.09;;;0.29;100.00
8318;BME280;4196;48.926;8.964;2023-03-03T07:00:22;99435.59;;;0.18;100.00
8318;BME280;4196;48.926;8.964;2023-03-03T07:03:17;99433.41;;;0.45;100.00
8318;BME280;4196;48.926;8.964;2023-03-03T07:06:22;99417.84;;;0.39;100.00
8318;BME280;4196;48.926;8.964;2023-03-03T07:09:25;99378.81;;;0.40;100.00
8318;BME280;4196;48.926;8.964;2023-03-03T07:12:21;99407.22;;;0.69;100.00
8318;BME280;4196;48.926;8.964;2023-03-03T07:17:55;99432.59;;;0.87;100.00
8318;BME280;4196;48.926;8.964;2023-03-03T07:20:45;99436.59;;;1.01;100.00
8318;BME280;4196;48.926;8.964;2023-03-03T07:23:37;99435.78;;;1.02;100.00
8318;BME280;4196;48.926;8.964;2023-03-03T07:26:31;99405.78;;;0.76;100.00
8318;BME280;4196;48.926;8.964;2023-03-03T07:29:26;99427.13;;;0.99;100.00
8318;BME280;4196;48.926;8.964;2023-03-03T07:32:38;99438.84;;;1.14;100.00
8318;BME280;4196;48.926;8.964;2023-03-03T07:35:42;99442.31;;;1.37;100.00
8318;BME280;4196;48.926;8.964;2023-03-03T07:38:41;99438.69;;;1.53;100.00
8318;BME280;4196;48.926;8.964;2023-03-03T07:41:33;99435.94;;;1.69;100.00
8318;BME280;4196;48.926;8.964;2023-03-03T07:44:21;99433.97;;;1.62;100.00
8318;BME280;4196;48.926;8.964;2023-03-03T07:47:27;99466.03;;;1.78;100.00
8318;BME280;4196;48.926;8.964;2023-03-03T07:50:19;99455.75;;;1.77;100.00
8318;BME280;4196;48.926;8.964;2023-03-03T07:53:23;99465.94;;;1.98;100.00
8318;BME280;4196;48.926;8.964;2023-03-03T07:56:27;99478.28;;;2.09;100.00
8318;BME280;4196;48.926;8.964;2023-03-03T07:59:22;99478.56;;;2.17;100.00
8318;BME280;4196;48.926;8.964;2023-03-03T08:02:34;99459.94;;;2.20;100.00
8318;BME280;4196;48.926;8.964;2023-03-03T08:05:34;99450.13;;;2.30;100.00
8318;BME280;4196;48.926;8.964;2023-03-03T08:08:30;99475.13;;;2.61;100.00
8318;BME280;4196;48.926;8.964;2023-03-03T08:11:18;99428.75;;;2.28;100.00
8318;BME280;4196;48.926;8.964;2023-03-03T08:14:14;99449.28;;;2.31;100.00
8318;BME280;4196;48.926;8.964;2023-03-03T08:17:06;99470.19;;;2.67;100.00
8318;BME280;4196;48.926;8.964;2023-03-03T08:19:59;99457.47;;;2.45;100.00
8318;BME280;4196;48.926;8.964;2023-03-03T08:22:46;99433.91;;;2.54;100.00
8318;BME280;4196;48.926;8.964;2023-03-03T08:25:32;99462.22;;;2.58;100.00
8318;BME280;4196;48.926;8.964;2023-03-03T08:28:20;99428.94;;;2.33;100.00
8318;BME280;4196;48.926;8.964;2023-03-03T08:31:07;99473.41;;;2.38;100.00
8318;BME280;4196;48.926;8.964;2023-03-03T08:34:10;99475.94;;;2.38;100.00
8318;BME280;4196;48.926;8.964;2023-03-03T08:36:56;99450.88;;;2.28;100.00
8318;BME280;4196;48.926;8.964;2023-03-03T08:39:43;99461.13;;;2.52;100.00
8318;BME280;4196;48.926;8.964;2023-03-03T08:42:30;99464.44;;;2.49;100.00
8318;BME280;4196;48.926;8.964;2023-03-03T08:45:16;99456.28;;;2.59;100.00
8318;BME280;4196;48.926;8.964;2023-03-03T08:48:03;99442.66;;;2.60;100.00
8318;BME280;4196;48.926;8.964;2023-03-03T08:50:51;99423.00;;;2.58;100.00
8318;BME280;4196;48.926;8.964;2023-03-03T08:53:37;99471.97;;;2.94;100.00
8318;BME280;4196;48.926;8.964;2023-03-03T08:56:24;99444.25;;;2.81;98.35
8318;BME280;4196;48.926;8.964;2023-03-03T08:59:11;99437.38;;;2.80;98.88
8318;BME280;4196;48.926;8.964;2023-03-03T09:01:58;99478.13;;;2.99;94.71
8318;BME280;4196;48.926;8.964;2023-03-03T09:04:45;99478.25;;;3.02;93.82
8318;BME280;4196;48.926;8.964;2023-03-03T09:07:31;99483.28;;;3.26;89.99
8318;BME280;4196;48.926;8.964;2023-03-03T09:10:21;99486.53;;;3.46;87.82
8318;BME280;4196;48.926;8.964;2023-03-03T09:13:17;99490.78;;;3.73;85.16
8318;BME280;4196;48.926;8.964;2023-03-03T09:16:12;99474.81;;;3.81;84.19
8318;BME280;4196;48.926;8.964;2023-03-03T09:19:14;99487.03;;;3.63;83.92
8318;BME280;4196;48.926;8.964;2023-03-03T09:22:16;99487.44;;;3.48;82.81
8318;BME280;4196;48.926;8.964;2023-03-03T09:25:17;99501.38;;;3.83;81.38
8318;BME280;4196;48.926;8.964;2023-03-03T09:28:28;99493.09;;;3.92;79.33
8318;BME280;4196;48.926;8.964;2023-03-03T09:31:26;99500.25;;;4.04;80.05
8318;BME280;4196;48.926;8.964;2023-03-03T09:34:19;99467.47;;;4.21;78.95
8318;BME280;4196;48.926;8.964;2023-03-03T09:43:36;99463.78;;;4.41;77.74
8318;BME280;4196;48.926;8.964;2023-03-03T09:49:35;99474.81;;;4.69;77.71
8318;BME280;4196;48.926;8.964;2023-03-03T09:52:36;99496.69;;;4.88;75.74
8318;BME280;4196;48.926;8.964;2023-03-03T09:55:33;99501.06;;;4.90;74.98
8318;BME280;4196;48.926;8.964;2023-03-03T10:10:44;99494.59;;;5.38;71.16
8318;BME280;4196;48.926;8.964;2023-03-03T10:17:04;99495.31;;;5.33;71.58
8318;BME280;4196;48.926;8.964;2023-03-03T10:34:04;99475.91;;;5.81;68.91
8318;BME280;4196;48.926;8.964;2023-03-03T10:49:52;99497.63;;;5.92;68.09
8318;BME280;4196;48.926;8.964;2023-03-03T10:52:50;99498.44;;;5.91;67.18
8318;BME280;4196;48.926;8.964;2023-03-03T10:58:52;99495.47;;;6.11;68.00
8318;BME280;4196;48.926;8.964;2023-03-03T11:16:44;99488.94;;;8.19;63.21
8318;BME280;4196;48.926;8.964;2023-03-03T11:20:00;99500.50;;;8.45;60.20
8318;BME280;4196;48.926;8.964;2023-03-03T11:37:42;99487.91;;;9.58;58.40
8318;BME280;4196;48.926;8.964;2023-03-03T11:40:48;99483.34;;;9.31;57.51
8318;BME280;4196;48.926;8.964;2023-03-03T11:43:41;99462.69;;;9.28;58.95
8318;BME280;4196;48.926;8.964;2023-03-03T11:46:39;99474.78;;;9.34;56.14
8318;BME280;4196;48.926;8.964;2023-03-03T11:49:49;99472.94;;;9.24;55.73
8318;BME280;4196;48.926;8.964;2023-03-03T11:55:55;99453.69;;;8.89;58.18
8318;BME280;4196;48.926;8.964;2023-03-03T12:01:56;99452.22;;;9.16;54.51
8318;BME280;4196;48.926;8.964;2023-03-03T12:04:53;99456.50;;;9.15;53.55
8318;BME280;4196;48.926;8.964;2023-03-03T12:26:28;99450.03;;;8.72;54.42
8318;BME280;4196;48.926;8.964;2023-03-03T12:32:28;99413.69;;;8.51;55.53
8318;BME280;4196;48.926;8.964;2023-03-03T12:35:43;99438.94;;;8.79;55.25
8318;BME280;4196;48.926;8.964;2023-03-03T12:38:51;99400.09;;;8.67;55.10
8318;BME280;4196;48.926;8.964;2023-03-03T12:44:43;99426.50;;;9.28;53.27
8318;BME280;4196;48.926;8.964;2023-03-03T12:47:38;99436.03;;;9.35;52.66
8318;BME280;4196;48.926;8.964;2023-03-03T12:50:38;99421.28;;;9.22;52.77
8318;BME280;4196;48.926;8.964;2023-03-03T13:03:13;99408.00;;;9.97;50.96
8318;BME280;4196;48.926;8.964;2023-03-03T13:06:35;99429.59;;;10.05;50.51
8318;BME280;4196;48.926;8.964;2023-03-03T13:12:44;99415.88;;;10.23;51.39
8318;BME280;4196;48.926;8.964;2023-03-03T13:16:03;99420.06;;;9.95;51.00
8318;BME280;4196;48.926;8.964;2023-03-03T13:21:54;99417.31;;;9.72;51.49
8318;BME280;4196;48.926;8.964;2023-03-03T13:27:43;99283.56;;;9.35;52.12
8318;BME280;4196;48.926;8.964;2023-03-03T13:30:33;99403.94;;;10.45;50.82
8318;BME280;4196;48.926;8.964;2023-03-03T13:33:29;99407.44;;;10.62;49.96
8318;BME280;4196;48.926;8.964;2023-03-03T13:36:17;99405.75;;;10.69;49.05
8318;BME280;4196;48.926;8.964;2023-03-03T13:39:22;99401.44;;;10.75;49.49
8318;BME280;4196;48.926;8.964;2023-03-03T13:42:32;99372.94;;;10.77;48.96
8318;BME280;4196;48.926;8.964;2023-03-03T13:54:48;99380.41;;;9.91;50.23
8318;BME280;4196;48.926;8.964;2023-03-03T13:57:59;99397.66;;;10.00;50.65
8318;BME280;4196;48.926;8.964;2023-03-03T14:07:17;99347.56;;;9.81;51.24
8318;BME280;4196;48.926;8.964;2023-03-03T14:10:32;99383.06;;;10.09;50.60
8318;BME280;4196;48.926;8.964;2023-03-03T14:13:48;99359.66;;;9.86;51.68
8318;BME280;4196;48.926;8.964;2023-03-03T14:16:53;99370.91;;;9.98;52.45
8318;BME280;4196;48.926;8.964;2023-03-03T14:19:46;99372.66;;;9.96;52.47
8318;BME280;4196;48.926;8.964;2023-03-03T14:26:09;99372.13;;;9.14;54.24
8318;BME280;4196;48.926;8.964;2023-03-03T14:32:26;99376.47;;;9.17;54.37
8318;BME280;4196;48.926;8.964;2023-03-03T14:35:38;99355.66;;;9.02;55.57
8318;BME280;4196;48.926;8.964;2023-03-03T14:41:20;99345.41;;;9.11;54.86
8318;BME280;4196;48.926;8.964;2023-03-03T14:49:57;99364.34;;;9.10;55.51
8318;BME280;4196;48.926;8.964;2023-03-03T14:53:04;99368.56;;;9.02;56.06
8318;BME280;4196;48.926;8.964;2023-03-03T14:55:51;99369.53;;;9.14;56.06
8318;BME280;4196;48.926;8.964;2023-03-03T14:58:40;99370.34;;;9.07;56.50
8318;BME280;4196;48.926;8.964;2023-03-03T15:01:34;99363.38;;;9.00;55.88
8318;BME280;4196;48.926;8.964;2023-03-03T15:04:26;99366.06;;;9.11;56.23
8318;BME280;4196;48.926;8.964;2023-03-03T15:07:35;99361.00;;;9.26;54.95
8318;BME280;4196;48.926;8.964;2023-03-03T15:10:31;99357.50;;;9.18;55.40
8318;BME280;4196;48.926;8.964;2023-03-03T15:16:16;99358.28;;;9.08;55.87
8318;BME280;4196;48.926;8.964;2023-03-03T15:41:21;99324.53;;;8.86;57.60
8318;BME280;4196;48.926;8.964;2023-03-03T15:44:15;99342.63;;;8.91;57.21
8318;BME280;4196;48.926;8.964;2023-03-03T15:47:31;99347.00;;;8.97;56.57
8318;BME280;4196;48.926;8.964;2023-03-03T15:53:26;99322.81;;;8.85;56.68
8318;BME280;4196;48.926;8.964;2023-03-03T16:05:34;99356.34;;;8.81;57.77
8318;BME280;4196;48.926;8.964;2023-03-03T16:08:28;99358.78;;;8.67;58.21
8318;BME280;4196;48.926;8.964;2023-03-03T16:11:27;99355.28;;;8.60;58.41
8318;BME280;4196;48.926;8.964;2023-03-03T16:26:06;99308.22;;;8.05;59.40
8318;BME280;4196;48.926;8.964;2023-03-03T16:32:24;99375.41;;;8.16;59.72
8318;BME280;4196;48.926;8.964;2023-03-03T16:35:25;99357.94;;;7.93;59.58
8318;BME280;4196;48.926;8.964;2023-03-03T16:38:21;99384.72;;;8.05;59.97
8318;BME280;4196;48.926;8.964;2023-03-03T16:41:28;99364.94;;;8.04;61.63
8318;BME280;4196;48.926;8.964;2023-03-03T16:44:26;99392.41;;;8.02;63.19
8318;BME280;4196;48.926;8.964;2023-03-03T16:56:49;99412.19;;;7.43;66.68
8318;BME280;4196;48.926;8.964;2023-03-03T16:59:46;99380.75;;;7.10;67.62
8318;BME280;4196;48.926;8.964;2023-03-03T17:05:38;99414.97;;;7.02;69.39
8318;BME280;4196;48.926;8.964;2023-03-03T17:17:03;99429.34;;;6.44;73.37
8318;BME280;4196;48.926;8.964;2023-03-03T17:26:38;99445.09;;;6.19;75.85
8318;BME280;4196;48.926;8.964;2023-03-03T17:29:40;99454.16;;;6.01;76.54
8318;BME280;4196;48.926;8.964;2023-03-03T17:32:43;99446.78;;;5.79;77.55
8318;BME280;4196;48.926;8.964;2023-03-03T17:36:06;99458.75;;;5.78;78.98
8318;BME280;4196;48.926;8.964;2023-03-03T17:39:20;99467.25;;;5.76;79.44
8318;BME280;4196;48.926;8.964;2023-03-03T17:45:20;99470.16;;;5.55;80.59
8318;BME280;4196;48.926;8.964;2023-03-03T17:51:38;99476.63;;;5.38;81.86
8318;BME280;4196;48.926;8.964;2023-03-03T18:06:30;99495.94;;;4.90;84.75
8318;BME280;4196;48.926;8.964;2023-03-03T18:09:37;99498.50;;;4.90;84.93
8318;BME280;4196;48.926;8.964;2023-03-03T18:24:38;99447.47;;;3.53;92.88
8318;BME280;4196;48.926;8.964;2023-03-03T18:27:42;99515.75;;;4.07;92.34
8318;BME280;4196;48.926;8.964;2023-03-03T18:30:30;99478.34;;;3.85;92.32
8318;BME280;4196;48.926;8.964;2023-03-03T18:49:10;99512.63;;;2.62;100.00
8318;BME280;4196;48.926;8.964;2023-03-03T18:52:29;99536.28;;;2.57;100.00
8318;BME280;4196;48.926;8.964;2023-03-03T19:04:08;99549.72;;;2.06;100.00
8318;BME280;4196;48.926;8.964;2023-03-03T19:12:53;99531.03;;;1.65;100.00
8318;BME280;4196;48.926;8.964;2023-03-03T19:15:43;99514.72;;;1.62;100.00
8318;BME280;4196;48.926;8.964;2023-03-03T19:21:33;99558.94;;;1.61;100.00
8318;BME280;4196;48.926;8.964;2023-03-03T19:24:26;99538.78;;;1.46;100.00
8318;BME280;4196;48.926;8.964;2023-03-03T19:27:31;99493.16;;;1.12;100.00
8318;BME280;4196;48.926;8.964;2023-03-03T19:36:56;99560.41;;;1.35;100.00
8318;BME280;4196;48.926;8.964;2023-03-03T19:40:15;99555.53;;;1.20;100.00
8318;BME280;4196;48.926;8.964;2023-03-03T19:49:21;99542.47;;;0.73;100.00
8318;BME280;4196;48.926;8.964;2023-03-03T19:52:38;99504.91;;;0.50;100.00
8318;BME280;4196;48.926;8.964;2023-03-03T19:55:47;99572.59;;;0.82;100.00
8318;BME280;4196;48.926;8.964;2023-03-03T20:05:00;99587.22;;;0.67;100.00
8318;BME280;4196;48.926;8.964;2023-03-03T20:08:32;99583.56;;;0.62;100.00
8318;BME280;4196;48.926;8.964;2023-03-03T20:11:36;99572.22;;;0.55;100.00
8318;BME280;4196;48.926;8.964;2023-03-03T20:14:47;99578.94;;;0.53;100.00
8318;BME280;4196;48.926;8.964;2023-03-03T20:17:50;99530.81;;;0.22;100.00
8318;BME280;4196;48.926;8.964;2023-03-03T20:21:03;99596.22;;;0.78;100.00
8318;BME280;4196;48.926;8.964;2023-03-03T20:27:21;99588.84;;;0.47;100.00
8318;BME280;4196;48.926;8.964;2023-03-03T20:30:24;99590.31;;;0.42;100.00
8318;BME280;4196;48.926;8.964;2023-03-03T20:33:30;99593.91;;;0.28;100.00
8318;BME280;4196;48.926;8.964;2023-03-03T20:36:31;99600.06;;;0.33;100.00
8318;BME280;4196;48.926;8.964;2023-03-03T20:45:40;99604.38;;;0.16;100.00
8318;BME280;4196;48.926;8.964;2023-03-03T20:52:07;99586.34;;;-0.07;100.00
8318;BME280;4196;48.926;8.964;2023-03-03T20:57:52;99598.06;;;-0.10;100.00
8318;BME280;4196;48.926;8.964;2023-03-03T21:01:06;99605.44;;;-0.15;100.00
8318;BME280;4196;48.926;8.964;2023-03-03T21:03:54;99603.28;;;-0.25;100.00
8318;BME280;4196;48.926;8.964;2023-03-03T21:07:01;99606.91;;;-0.20;100.00
8318;BME280;4196;48.926;8.964;2023-03-03T21:09:48;99558.28;;;-0.60;100.00
8318;BME280;4196;48.926;8.964;2023-03-03T21:12:34;99610.38;;;-0.36;100.00
8318;BME280;4196;48.926;8.964;2023-03-03T21:18:20;99627.22;;;-0.38;100.00
8318;BME280;4196;48.926;8.964;2023-03-03T21:21:08;99600.38;;;-0.49;100.00
8318;BME280;4196;48.926;8.964;2023-03-03T21:23:55;99584.69;;;-0.58;100.00
8318;BME280;4196;48.926;8.964;2023-03-03T21:26:51;99619.44;;;-0.41;100.00
8318;BME280;4196;48.926;8.964;2023-03-03T21:29:37;99615.16;;;-0.42;100.00
8318;BME280;4196;48.926;8.964;2023-03-03T21:32:37;99614.66;;;-0.35;100.00
8318;BME280;4196;48.926;8.964;2023-03-03T21:35:24;99615.16;;;-0.42;100.00
8318;BME280;4196;48.926;8.964;2023-03-03T21:38:31;99599.28;;;-0.54;100.00
8318;BME280;4196;48.926;8.964;2023-03-03T21:41:18;99599.44;;;-0.51;100.00
8318;BME280;4196;48.926;8.964;2023-03-03T21:44:31;99627.31;;;-0.36;100.00